Terminal Aerodrome Forecast
Issued by NWS

Home | Current Version | Previous Version | Text Only | Print | Product List | Glossary On
Versions: 1 2 3 4 5 6 7 8 9 10 11 12 13 14 15 16 17 18 19
000
FTUS44 KLZK 252300
TAFLIT
TAF
KLIT 252331Z 2600/2624 13010KT P6SM VCTS BKN050CB
      TEMPO 2600/2604 VRB20G45KT 2SM TSRA BR OVC015CB
     FM260400 15010KT 5SM SHRA BR OVC025
     FM260800 18009KT 5SM BR OVC015
     FM261400 20008KT P6SM BKN025
     FM261800 24007KT P6SM SCT250=

USA.gov is the U.S. government's official web portal to all federal, state and local government web resources and services.